createdAt,value
2018-06-19T00:03:26.185Z,36.82
2018-06-19T00:04:26.009Z,35.86
2018-06-19T00:05:26.179Z,33.08
2018-06-19T00:06:26.350Z,31.35
2018-06-19T00:07:26.527Z,29.91
2018-06-19T00:08:26.676Z,28.00
2018-06-19T00:09:26.863Z,28.77
2018-06-19T00:10:27.033Z,29.34
2018-06-19T00:11:27.201Z,28.86
2018-06-19T00:12:27.371Z,29.05
2018-06-19T00:15:09.641Z,29.05
2018-06-19T00:16:09.807Z,26.94
2018-06-19T00:17:09.982Z,25.70
2018-06-19T00:18:10.141Z,26.65
2018-06-19T00:19:10.306Z,27.90
2018-06-19T00:20:10.476Z,29.72
2018-06-19T00:21:10.643Z,31.54
2018-06-19T00:22:10.807Z,32.71
2018-06-19T00:23:10.979Z,33.77
2018-06-19T00:24:11.154Z,35.30
2018-06-19T00:26:53.706Z,38.56
2018-06-19T00:27:53.878Z,39.33
2018-06-19T00:28:54.046Z,40.70
2018-06-19T00:29:54.217Z,41.08
2018-06-19T00:30:54.385Z,42.11
2018-06-19T00:31:54.556Z,40.48
2018-06-19T00:32:54.729Z,36.46
2018-06-19T00:33:54.891Z,35.69
2018-06-19T00:34:55.051Z,36.36
2018-06-19T00:35:55.223Z,36.65
2018-06-19T00:38:37.766Z,31.74
2018-06-19T00:39:37.931Z,30.49
2018-06-19T00:40:38.101Z,31.54
2018-06-19T00:41:38.276Z,32.70
2018-06-19T00:42:38.445Z,33.67
2018-06-19T00:43:38.610Z,35.30
2018-06-19T00:44:38.775Z,36.84
2018-06-19T00:45:38.947Z,37.89
2018-06-19T00:46:39.107Z,38.85
2018-06-19T00:47:39.274Z,40.20
2018-06-19T00:50:21.548Z,38.76
2018-06-19T00:51:21.717Z,35.02
2018-06-19T00:52:21.884Z,33.47
2018-06-19T00:53:22.059Z,34.44
2018-06-19T00:54:22.230Z,32.81
2018-06-19T00:55:22.393Z,31.16
2018-06-19T00:56:22.563Z,28.96
2018-06-19T00:57:22.727Z,24.93
2018-06-19T00:58:22.889Z,24.16
2018-06-19T00:59:23.064Z,24.26
2018-06-19T01:02:05.624Z,21.77
2018-06-19T01:03:05.786Z,21.18
2018-06-19T01:04:05.957Z,21.57
2018-06-19T01:05:06.119Z,21.19
2018-06-19T01:06:06.285Z,21.19
2018-06-19T01:07:06.452Z,21.18
2018-06-19T01:08:06.618Z,21.28
2018-06-19T01:09:06.781Z,20.12
2018-06-19T01:10:06.963Z,21.57
2018-06-19T01:11:07.132Z,21.95
2018-06-19T01:13:49.407Z,25.12
2018-06-19T01:14:49.565Z,26.27
2018-06-19T01:15:49.733Z,27.14
2018-06-19T01:16:49.899Z,29.06
2018-06-19T01:17:50.123Z,31.08
2018-06-19T01:18:51.921Z,32.62
2018-06-19T01:19:50.339Z,34.15
2018-06-19T01:20:50.505Z,35.69
2018-06-19T01:21:50.669Z,36.74
2018-06-19T01:22:50.836Z,37.51
2018-06-19T01:23:51.002Z,39.06
2018-06-19T01:24:51.173Z,39.73
2018-06-19T01:25:51.341Z,40.31
2018-06-19T01:26:51.513Z,40.79
2018-06-19T01:27:51.683Z,41.37
2018-06-19T01:33:32.303Z,43.70
2018-06-19T01:34:32.484Z,44.27
2018-06-19T01:35:32.648Z,44.94
2018-06-19T01:36:32.816Z,45.01
2018-06-19T01:37:32.987Z,45.32
2018-06-19T01:38:33.154Z,46.45
2018-06-19T01:39:33.323Z,46.19
2018-06-19T01:40:33.492Z,46.84
2018-06-19T01:41:33.661Z,46.77
2018-06-19T01:42:33.835Z,45.11
2018-06-19T01:43:34.001Z,45.11
2018-06-19T01:44:34.172Z,45.01
2018-06-19T01:45:34.335Z,45.42
2018-06-19T01:46:34.509Z,45.01
2018-06-19T01:47:34.672Z,44.92
2018-06-19T01:50:16.940Z,41.66
2018-06-19T01:51:17.105Z,41.37
2018-06-19T01:52:17.276Z,37.41
2018-06-19T01:53:17.442Z,36.26
2018-06-19T01:54:17.606Z,32.90
2018-06-19T01:55:17.778Z,30.79
2018-06-19T01:56:17.944Z,28.68
2018-06-19T01:57:18.114Z,29.93
2018-06-19T01:58:18.279Z,30.99
2018-06-19T01:59:18.451Z,31.66
2018-06-19T02:00:18.620Z,31.56
2018-06-19T02:01:18.788Z,30.32
2018-06-19T02:02:18.947Z,28.30
2018-06-19T02:03:19.119Z,26.28
2018-06-19T02:04:20.968Z,24.16
2018-06-19T02:07:01.610Z,23.58
2018-06-19T02:08:01.784Z,24.18
2018-06-19T02:09:01.954Z,23.01
2018-06-19T02:10:02.127Z,22.63
2018-06-19T02:11:02.292Z,22.83
2018-06-19T02:12:02.456Z,23.88
2018-06-19T02:13:02.633Z,24.85
2018-06-19T02:14:02.812Z,26.38
2018-06-19T02:15:02.955Z,28.39
2018-06-19T02:16:03.126Z,29.35
2018-06-19T02:18:45.387Z,28.20
2018-06-19T02:19:45.557Z,28.97
2018-06-19T02:20:45.718Z,29.93
2018-06-19T02:21:45.883Z,29.26
2018-06-19T02:22:46.048Z,29.16
2018-06-19T02:23:46.215Z,29.45
2018-06-19T02:24:46.389Z,28.20
2018-06-19T02:25:46.560Z,29.06
2018-06-19T02:26:46.738Z,29.94
2018-06-19T02:27:46.918Z,30.99
2018-06-19T02:28:47.085Z,32.25
2018-06-19T02:29:47.253Z,32.82
2018-06-19T02:30:47.420Z,33.98
2018-06-19T02:31:47.589Z,35.03
2018-06-19T02:32:47.753Z,35.13
2018-06-19T02:38:28.376Z,34.36
2018-06-19T02:39:28.548Z,32.44
2018-06-19T02:40:28.720Z,30.79
2018-06-19T02:41:28.886Z,28.78
2018-06-19T02:42:29.049Z,24.46
2018-06-19T02:43:29.217Z,22.45
2018-06-19T02:44:29.384Z,20.72
2018-06-19T02:45:29.595Z,19.94
2018-06-19T02:46:29.768Z,18.31
2018-06-19T02:47:29.935Z,18.12
2018-06-19T02:48:30.111Z,17.16
2018-06-19T02:49:30.272Z,18.22
2018-06-19T02:50:30.436Z,17.93
2018-06-19T02:51:30.606Z,16.58
2018-06-19T02:52:30.779Z,16.49
2018-06-19T02:55:13.046Z,19.28
2018-06-19T02:56:13.212Z,20.53
2018-06-19T02:57:13.381Z,22.25
2018-06-19T02:58:13.549Z,23.79
2018-06-19T02:59:21.346Z,24.94
2018-06-19T03:00:13.925Z,26.09
2018-06-19T03:01:14.050Z,27.34
2018-06-19T03:02:14.215Z,28.22
2018-06-19T03:03:14.380Z,28.89
2018-06-19T03:04:14.537Z,27.06
2018-06-19T03:05:14.720Z,25.71
2018-06-19T03:06:14.881Z,24.75
2018-06-19T03:07:15.056Z,24.56
2018-06-19T03:08:15.215Z,24.65
2018-06-19T03:09:15.383Z,22.16
2018-06-19T03:11:57.653Z,17.84
2018-06-19T03:12:57.826Z,16.60
2018-06-19T03:13:57.993Z,15.34
2018-06-19T03:14:58.160Z,15.44
2018-06-19T03:15:58.324Z,14.58
2018-06-19T03:16:58.495Z,13.23
2018-06-19T03:17:58.655Z,13.04
2018-06-19T03:18:58.824Z,12.46
2018-06-19T03:19:58.994Z,13.13
2018-06-19T03:20:59.158Z,14.28
2018-06-19T03:23:41.413Z,17.46
2018-06-19T03:24:41.582Z,17.84
2018-06-19T03:25:41.750Z,19.38
2018-06-19T03:26:41.920Z,20.53
2018-06-19T03:27:42.080Z,21.68
2018-06-19T03:28:42.248Z,22.06
2018-06-19T03:29:42.406Z,22.45
2018-06-19T03:30:44.452Z,23.79
2018-06-19T03:31:42.757Z,20.05
2018-06-19T03:32:42.928Z,17.94
2018-06-19T03:33:43.106Z,17.74
2018-06-19T03:34:43.256Z,17.07
2018-06-19T03:35:43.419Z,14.28
2018-06-19T03:36:43.597Z,13.13
2018-06-19T03:37:43.766Z,12.08
2018-06-19T03:40:26.038Z,14.97
2018-06-19T03:41:26.199Z,16.60
2018-06-19T03:42:26.372Z,17.27
2018-06-19T03:43:26.542Z,17.94
2018-06-19T03:44:26.704Z,18.32
2018-06-19T03:45:26.882Z,19.47
2018-06-19T03:46:27.041Z,19.85
2018-06-19T03:47:27.204Z,20.43
2018-06-19T03:48:27.370Z,20.81
2018-06-19T03:49:27.540Z,21.20
2018-06-19T03:50:27.711Z,20.62
2018-06-19T03:51:27.876Z,21.68
2018-06-19T03:52:28.047Z,22.08
2018-06-19T03:53:28.212Z,22.08
2018-06-19T03:54:28.381Z,22.75
2018-06-19T03:57:10.651Z,25.15
2018-06-19T03:58:10.816Z,25.15
2018-06-19T03:59:10.986Z,25.72
2018-06-19T04:00:11.151Z,26.59
2018-06-19T04:01:11.320Z,26.87
2018-06-19T04:02:11.488Z,26.78
2018-06-19T04:03:11.653Z,27.45
2018-06-19T04:04:11.821Z,28.41
2018-06-19T04:05:11.991Z,28.03
2018-06-19T04:06:12.158Z,27.08
2018-06-19T04:08:54.436Z,26.39
2018-06-19T04:09:54.605Z,27.37
2018-06-19T04:10:54.763Z,27.45
2018-06-19T04:11:54.931Z,28.81
2018-06-19T04:12:55.104Z,29.38
2018-06-19T04:13:55.269Z,26.50
2018-06-19T04:14:55.437Z,24.58
2018-06-19T04:15:55.603Z,22.94
2018-06-19T04:16:55.770Z,19.29
2018-06-19T04:17:55.936Z,15.93
2018-06-19T04:18:56.107Z,13.43
2018-06-19T04:19:56.272Z,11.22
2018-06-19T04:20:56.440Z,10.55
2018-06-19T04:21:56.606Z,8.73
2018-06-19T04:22:56.773Z,7.57
2018-06-19T04:25:29.140Z,10.46
2018-06-19T04:26:29.146Z,12.28
2018-06-19T04:27:29.315Z,13.62
2018-06-19T04:28:29.497Z,14.11
2018-06-19T04:29:29.658Z,15.83
2018-06-19T04:30:29.835Z,16.70
2018-06-19T04:31:29.996Z,17.85
2018-06-19T04:32:30.167Z,17.08
2018-06-19T04:33:30.348Z,16.70
2018-06-19T04:34:30.507Z,15.16
2018-06-19T04:35:30.674Z,13.43
2018-06-19T04:36:30.836Z,12.48
2018-06-19T04:37:31.008Z,13.05
2018-06-19T04:38:31.175Z,10.46
2018-06-19T04:39:31.334Z,7.10
2018-06-19T04:42:03.645Z,5.18
2018-06-19T04:43:03.795Z,3.07
2018-06-19T04:44:03.952Z,4.22
2018-06-19T04:45:04.117Z,4.99
2018-06-19T04:46:04.282Z,6.33
2018-06-19T04:47:04.486Z,7.97
2018-06-19T04:48:04.621Z,10.08
2018-06-19T04:49:04.788Z,11.71
2018-06-19T04:50:04.955Z,12.19
2018-06-19T04:51:05.147Z,9.21
2018-06-19T04:52:05.311Z,6.04
2018-06-19T04:53:13.132Z,4.32
2018-06-19T04:54:05.679Z,3.36
2018-06-19T04:55:05.840Z,2.39
2018-06-19T04:56:06.025Z,2.49
2018-06-19T04:57:06.179Z,3.93
2018-06-19T04:58:06.492Z,5.08
2018-06-19T04:59:06.474Z,6.24
2018-06-19T05:00:06.631Z,7.29
2018-06-19T05:02:38.395Z,8.64
2018-06-19T05:03:38.571Z,9.79
2018-06-19T05:04:38.745Z,10.75
2018-06-19T05:05:46.364Z,11.71
2018-06-19T05:06:39.019Z,10.36
2018-06-19T05:07:39.194Z,11.42
2018-06-19T05:08:39.362Z,10.94
2018-06-19T05:09:39.528Z,10.56
2018-06-19T05:10:39.697Z,10.46
2018-06-19T05:11:39.874Z,10.27
2018-06-19T05:12:40.039Z,10.37
2018-06-19T05:13:40.232Z,10.94
2018-06-19T05:14:40.384Z,11.42
2018-06-19T05:15:41.469Z,10.75
2018-06-19T05:16:40.760Z,10.55
2018-06-19T05:17:40.938Z,12.00
2018-06-19T05:18:41.128Z,13.35
2018-06-19T05:19:41.289Z,14.31
2018-06-19T05:22:23.858Z,16.03
2018-06-19T05:23:24.124Z,16.42
2018-06-19T05:24:31.363Z,18.83
2018-06-19T05:25:24.402Z,22.38
2018-06-19T05:26:24.581Z,26.61
2018-06-19T05:27:25.610Z,28.72
2018-06-19T05:28:24.924Z,31.82
2018-06-19T05:29:25.112Z,39.89
2018-06-19T05:30:25.340Z,42.58
2018-06-19T05:31:25.473Z,43.07
2018-06-19T05:32:25.820Z,36.15
2018-06-19T05:33:25.777Z,34.51
2018-06-19T05:35:58.434Z,39.62
2018-06-19T05:36:58.608Z,42.22
2018-06-19T05:37:58.768Z,43.66
2018-06-19T05:38:58.931Z,45.29
2018-06-19T05:39:59.108Z,52.51
2018-06-19T05:40:59.276Z,55.33
2018-06-19T05:41:59.444Z,58.79
2018-06-19T05:42:59.613Z,63.12
2018-06-19T05:43:59.781Z,58.95
2018-06-19T05:44:59.950Z,59.27
2018-06-19T05:46:00.110Z,60.91
2018-06-19T05:47:00.310Z,66.88
2018-06-19T05:48:00.479Z,69.99
2018-06-19T05:49:00.650Z,72.39
2018-06-19T05:50:00.816Z,77.69
2018-06-19T05:52:43.143Z,76.34
2018-06-19T05:53:43.314Z,81.73
2018-06-19T05:54:43.458Z,84.05
2018-06-19T05:55:43.699Z,87.41
2018-06-19T05:56:43.846Z,85.78
2018-06-19T05:57:44.010Z,83.95
2018-06-19T05:58:44.187Z,85.39
2018-06-19T05:59:44.361Z,82.75
2018-06-19T06:00:44.529Z,84.05
2018-06-19T06:01:44.698Z,85.72
2018-06-19T06:02:44.868Z,87.65
2018-06-19T06:03:45.037Z,90.25
2018-06-19T06:04:45.208Z,94.15
2018-06-19T06:05:45.445Z,97.72
2018-06-19T06:06:45.545Z,99.88
2018-06-19T06:09:28.111Z,99.99
2018-06-19T06:10:28.342Z,99.99
2018-06-19T06:11:28.453Z,99.99
2018-06-19T06:12:28.621Z,99.99
2018-06-19T06:13:28.793Z,99.99
2018-06-19T06:14:28.959Z,99.99
2018-06-19T06:15:29.168Z,99.99
2018-06-19T06:16:29.345Z,99.99
2018-06-19T06:17:29.469Z,99.99
2018-06-19T06:18:29.634Z,99.99
2018-06-19T06:19:29.814Z,99.99
2018-06-19T06:20:29.980Z,99.99
2018-06-19T06:21:30.147Z,99.99
2018-06-19T06:22:30.334Z,99.99
2018-06-19T06:23:30.505Z,99.99
2018-06-19T06:26:19.925Z,99.99
2018-06-19T06:27:12.968Z,99.99
2018-06-19T06:28:13.130Z,99.99
2018-06-19T06:29:13.330Z,99.99
2018-06-19T06:30:14.333Z,99.99
2018-06-19T06:31:13.632Z,99.99
2018-06-19T06:32:13.803Z,99.99
2018-06-19T06:33:13.972Z,99.99
2018-06-19T06:34:14.132Z,99.99
2018-06-19T06:35:14.319Z,99.99
2018-06-19T06:36:14.482Z,99.99
2018-06-19T06:38:58.062Z,99.99
2018-06-19T06:39:58.230Z,99.99
2018-06-19T06:41:06.348Z,99.99
2018-06-19T06:41:58.509Z,99.99
2018-06-19T06:42:58.719Z,99.99
2018-06-19T06:43:58.784Z,99.99
2018-06-19T06:44:58.951Z,99.99
2018-06-19T06:45:59.123Z,99.99
2018-06-19T06:46:59.290Z,99.99
2018-06-19T06:47:59.458Z,99.99
2018-06-19T06:48:59.629Z,99.99
2018-06-19T06:49:59.810Z,99.99
2018-06-19T06:51:00.757Z,99.99
2018-06-19T06:52:00.196Z,99.99
2018-06-19T06:53:00.375Z,99.99
2018-06-19T06:54:00.546Z,99.99
2018-06-19T06:55:00.710Z,99.99
2018-06-19T06:56:00.879Z,99.99
2018-06-19T06:58:33.160Z,99.99
2018-06-19T06:59:33.322Z,99.99
2018-06-19T07:00:33.498Z,99.99
2018-06-19T07:01:33.673Z,99.99
2018-06-19T07:02:33.842Z,99.99
2018-06-19T07:03:34.010Z,99.99
2018-06-19T07:04:34.173Z,99.99
2018-06-19T07:05:41.543Z,99.99
2018-06-19T07:06:34.480Z,99.99
2018-06-19T07:07:34.657Z,99.99
2018-06-19T07:08:42.274Z,99.99
2018-06-19T07:09:34.932Z,99.69
2018-06-19T07:10:35.102Z,98.15
2018-06-19T07:11:35.277Z,98.92
2018-06-19T07:12:35.440Z,99.99
2018-06-19T07:13:35.640Z,99.99
2018-06-19T07:14:35.780Z,99.99
2018-06-19T07:15:43.659Z,99.99
2018-06-19T07:16:37.690Z,99.99
2018-06-19T07:17:36.405Z,99.50
2018-06-19T07:18:36.575Z,99.50
2018-06-19T07:19:36.774Z,99.99
2018-06-19T07:20:37.782Z,99.99
2018-06-19T07:21:37.112Z,99.99
2018-06-19T07:22:37.209Z,99.99
2018-06-19T07:23:37.590Z,99.99
2018-06-19T07:24:37.509Z,99.99
2018-06-19T07:25:37.684Z,99.99
2018-06-19T07:28:21.097Z,99.99
2018-06-19T07:29:21.377Z,99.99
2018-06-19T07:30:21.578Z,99.99
2018-06-19T07:31:29.635Z,99.99
2018-06-19T07:32:21.809Z,99.99
2018-06-19T07:33:21.980Z,99.99
2018-06-19T07:34:22.151Z,99.99
2018-06-19T07:35:23.005Z,99.99
2018-06-19T07:36:22.430Z,99.99
2018-06-19T07:37:22.600Z,99.99
2018-06-19T07:38:22.824Z,99.99
2018-06-19T07:39:22.954Z,99.99
2018-06-19T07:40:23.118Z,99.99
2018-06-19T07:41:23.927Z,99.99
2018-06-19T07:42:23.515Z,99.99
2018-06-19T07:43:23.682Z,99.99
2018-06-19T07:44:23.847Z,99.99
2018-06-19T07:45:24.017Z,99.99
2018-06-19T07:46:24.190Z,99.99
2018-06-19T07:49:06.531Z,99.99
2018-06-19T07:50:06.690Z,99.99
2018-06-19T07:51:06.913Z,99.99
2018-06-19T07:52:07.082Z,99.99
2018-06-19T07:53:07.254Z,99.99
2018-06-19T07:54:08.039Z,99.99
2018-06-19T07:55:07.579Z,99.99
2018-06-19T07:56:08.514Z,99.99
2018-06-19T07:57:07.977Z,99.99
2018-06-19T07:58:08.114Z,99.99
2018-06-19T07:59:08.281Z,99.99
2018-06-19T08:00:08.470Z,99.99
2018-06-19T08:01:08.683Z,99.99
2018-06-19T08:02:08.835Z,99.99
2018-06-19T08:03:09.004Z,99.99
2018-06-19T08:05:52.256Z,99.99
2018-06-19T08:06:52.423Z,99.99
2018-06-19T08:07:52.593Z,99.99
2018-06-19T08:08:52.769Z,99.99
2018-06-19T08:09:52.948Z,99.99
2018-06-19T08:10:53.091Z,99.99
2018-06-19T08:11:53.283Z,99.99
2018-06-19T08:12:53.450Z,99.99
2018-06-19T08:13:53.620Z,99.99
2018-06-19T08:14:53.789Z,99.99
2018-06-19T08:15:53.958Z,99.99
2018-06-19T08:16:54.136Z,99.99
2018-06-19T08:17:54.302Z,99.99
2018-06-19T08:18:54.525Z,99.99
2018-06-19T08:19:54.640Z,99.99
2018-06-19T08:24:35.247Z,99.99
2018-06-19T08:25:35.419Z,99.99
2018-06-19T08:26:35.594Z,99.99
2018-06-19T08:27:35.763Z,99.99
2018-06-19T08:28:35.930Z,99.99
2018-06-19T08:29:43.571Z,99.99
2018-06-19T08:30:36.234Z,99.99
2018-06-19T08:31:36.407Z,99.99
2018-06-19T08:32:36.589Z,99.99
2018-06-19T08:33:36.737Z,99.99
2018-06-19T08:34:36.901Z,99.99
2018-06-19T08:35:37.069Z,99.99
2018-06-19T08:36:37.246Z,99.99
2018-06-19T08:37:37.411Z,99.99
2018-06-19T08:38:37.580Z,99.99
2018-06-19T08:39:38.584Z,99.99
2018-06-19T08:40:37.916Z,99.99
2018-06-19T08:41:38.058Z,99.99
2018-06-19T08:42:38.223Z,99.99
2018-06-19T08:43:38.381Z,99.99
2018-06-19T08:46:20.727Z,99.89
2018-06-19T08:47:20.896Z,99.99
2018-06-19T08:48:21.145Z,99.99
2018-06-19T08:49:21.186Z,99.99
2018-06-19T08:50:21.362Z,99.99
2018-06-19T08:51:21.534Z,99.99
2018-06-19T08:52:21.706Z,99.99
2018-06-19T08:53:21.875Z,99.07
2018-06-19T08:54:22.126Z,98.88
2018-06-19T08:55:22.226Z,99.99
2018-06-19T08:56:22.395Z,99.99
2018-06-19T08:57:22.565Z,99.99
2018-06-19T08:58:22.726Z,99.99
2018-06-19T08:59:22.903Z,99.99
2018-06-19T09:00:23.802Z,99.99
2018-06-19T09:03:05.348Z,99.99
2018-06-19T09:04:05.519Z,99.99
2018-06-19T09:05:05.699Z,99.99
2018-06-19T09:06:07.369Z,99.99
2018-06-19T09:07:06.035Z,99.99
2018-06-19T09:08:06.205Z,99.99
2018-06-19T09:09:06.381Z,99.99
2018-06-19T09:10:06.548Z,99.99
2018-06-19T09:11:06.718Z,99.99
2018-06-19T09:12:08.865Z,99.99
2018-06-19T09:13:07.069Z,99.99
2018-06-19T09:14:07.236Z,99.99
2018-06-19T09:15:07.407Z,99.99
2018-06-19T09:16:09.373Z,99.99
2018-06-19T09:17:07.786Z,99.99
2018-06-19T09:19:50.382Z,99.99
2018-06-19T09:20:52.097Z,99.99
2018-06-19T09:21:50.768Z,99.99
2018-06-19T09:22:50.939Z,99.99
2018-06-19T09:23:51.173Z,99.99
2018-06-19T09:24:54.124Z,99.99
2018-06-19T09:25:51.456Z,99.99
2018-06-19T09:26:51.583Z,99.99
2018-06-19T09:27:51.803Z,99.99
2018-06-19T09:28:51.918Z,99.99
2018-06-19T09:29:53.599Z,99.36
2018-06-19T09:30:52.269Z,99.16
2018-06-19T09:31:52.440Z,94.43
2018-06-19T09:32:52.612Z,93.90
2018-06-19T09:33:52.780Z,95.73
2018-06-19T09:36:35.582Z,95.01
2018-06-19T09:37:35.244Z,98.88
2018-06-19T09:38:35.418Z,98.78
2018-06-19T09:39:35.584Z,97.28
2018-06-19T09:40:44.630Z,99.99
2018-06-19T09:41:43.104Z,99.99
2018-06-19T09:42:36.251Z,99.99
2018-06-19T09:43:36.491Z,99.99
2018-06-19T09:44:36.582Z,99.99
2018-06-19T09:45:37.648Z,99.99
2018-06-19T09:46:36.982Z,99.99
2018-06-19T09:47:38.177Z,99.99
2018-06-19T09:48:37.402Z,99.99
2018-06-19T09:49:38.144Z,99.99
2018-06-19T09:50:37.716Z,99.99
2018-06-19T09:51:37.883Z,99.99
2018-06-19T09:52:47.044Z,99.99
2018-06-19T09:53:38.211Z,99.99
2018-06-19T09:54:38.369Z,99.99
2018-06-19T09:55:38.657Z,99.99
2018-06-19T09:56:38.983Z,99.99
2018-06-19T09:57:38.933Z,99.99
2018-06-19T09:58:38.999Z,99.99
2018-06-19T09:59:39.231Z,99.99
2018-06-19T10:00:39.306Z,99.99
2018-06-19T10:01:39.503Z,99.99
2018-06-19T10:02:39.680Z,99.99
2018-06-19T10:05:12.255Z,99.99
2018-06-19T10:06:12.485Z,99.99
2018-06-19T10:07:12.592Z,99.99
2018-06-19T10:08:12.759Z,99.99
2018-06-19T10:09:12.976Z,99.99
2018-06-19T10:10:13.893Z,99.99
2018-06-19T10:11:13.259Z,99.99
2018-06-19T10:12:21.495Z,99.99
2018-06-19T10:13:14.439Z,99.99
2018-06-19T10:14:13.927Z,99.99
2018-06-19T10:15:21.308Z,99.99
2018-06-19T10:16:13.960Z,99.99
2018-06-19T10:17:14.137Z,99.99
2018-06-19T10:18:14.312Z,99.99
2018-06-19T10:19:14.461Z,99.99
2018-06-19T10:20:14.631Z,98.25
2018-06-19T10:21:14.798Z,94.86
2018-06-19T10:22:14.994Z,95.10
2018-06-19T10:23:15.174Z,93.51
2018-06-19T10:24:15.343Z,91.42
2018-06-19T10:25:16.466Z,90.56
2018-06-19T10:26:15.655Z,90.17
2018-06-19T10:27:15.820Z,88.23
2018-06-19T10:28:15.998Z,88.81
2018-06-19T10:29:16.170Z,87.46
2018-06-19T10:30:26.066Z,89.78
2018-06-19T10:31:16.485Z,90.75
2018-06-19T10:32:16.634Z,90.51
2018-06-19T10:33:16.814Z,93.32
2018-06-19T10:34:16.983Z,97.38
2018-06-19T10:35:17.215Z,96.41
2018-06-19T10:36:17.461Z,99.99
2018-06-19T10:37:17.488Z,99.99
2018-06-19T10:38:17.666Z,96.02
2018-06-19T10:39:17.848Z,95.93
2018-06-19T10:40:26.732Z,93.80
2018-06-19T10:41:18.141Z,93.02
2018-06-19T10:42:18.343Z,93.85
2018-06-19T10:43:18.558Z,93.75
2018-06-19T10:44:18.677Z,93.17
2018-06-19T10:45:18.850Z,92.49
2018-06-19T10:46:19.018Z,90.75
2018-06-19T10:47:30.405Z,90.94
2018-06-19T10:48:19.301Z,89.78
2018-06-19T10:49:19.466Z,88.13
2018-06-19T10:50:21.622Z,87.65
2018-06-19T10:51:19.836Z,87.12
2018-06-19T10:52:28.754Z,87.46
2018-06-19T10:53:20.199Z,87.50
2018-06-19T10:54:20.512Z,87.60
2018-06-19T10:55:20.545Z,86.05
2018-06-19T10:56:20.717Z,83.15
2018-06-19T10:57:20.893Z,83.05
2018-06-19T10:58:21.102Z,84.01
2018-06-19T10:59:21.241Z,84.56
2018-06-19T11:00:21.439Z,86.30
2018-06-19T11:02:53.724Z,85.14
2018-06-19T11:03:53.895Z,85.42
2018-06-19T11:04:56.729Z,86.01
2018-06-19T11:05:54.275Z,88.81
2018-06-19T11:06:54.493Z,87.17
2018-06-19T11:07:54.681Z,88.81
2018-06-19T11:08:54.895Z,89.34
2018-06-19T11:09:55.043Z,87.60
2018-06-19T11:10:55.228Z,86.05
2018-06-19T11:11:55.383Z,84.99
2018-06-19T11:12:55.584Z,90.65
2018-06-19T11:13:55.769Z,93.26
2018-06-19T11:15:03.833Z,92.20
2018-06-19T11:15:56.025Z,90.84
2018-06-19T11:16:56.171Z,89.88
2018-06-19T11:17:56.342Z,88.62
2018-06-19T11:18:56.530Z,88.81
2018-06-19T11:19:56.797Z,89.88
2018-06-19T11:20:56.864Z,88.23
2018-06-19T11:21:57.043Z,86.98
2018-06-19T11:23:06.374Z,90.65
2018-06-19T11:23:57.477Z,84.75
2018-06-19T11:24:57.593Z,85.62
2018-06-19T11:25:57.762Z,86.98
2018-06-19T11:26:58.043Z,86.10
2018-06-19T11:27:58.035Z,86.98
2018-06-19T11:28:58.243Z,86.40
2018-06-19T11:29:58.384Z,85.24
2018-06-19T11:30:58.545Z,85.62
2018-06-19T11:31:58.723Z,85.72
2018-06-19T11:32:58.944Z,86.78
2018-06-19T11:33:59.064Z,87.55
2018-06-19T11:35:07.253Z,89.01
2018-06-19T11:35:59.422Z,89.01
2018-06-19T11:37:01.289Z,89.01
2018-06-19T11:38:00.228Z,91.72
2018-06-19T11:39:00.889Z,90.94
2018-06-19T11:40:00.072Z,92.78
2018-06-19T11:41:00.229Z,93.22
2018-06-19T11:42:00.457Z,95.06
2018-06-19T11:43:08.332Z,97.38
2018-06-19T11:44:00.817Z,98.35
2018-06-19T11:45:00.979Z,99.31
2018-06-19T11:46:01.138Z,99.02
2018-06-19T11:47:01.359Z,99.69
2018-06-19T11:48:02.437Z,99.99
2018-06-19T11:49:04.310Z,99.69
2018-06-19T11:50:01.726Z,99.60
2018-06-19T11:51:02.144Z,98.35
2018-06-19T11:52:02.301Z,98.93
2018-06-19T11:53:02.748Z,98.39
2018-06-19T11:55:34.513Z,99.99
2018-06-19T11:56:34.691Z,98.97
2018-06-19T11:57:35.607Z,99.99
2018-06-19T11:58:35.011Z,99.99
2018-06-19T11:59:35.180Z,99.99
2018-06-19T12:00:42.828Z,99.65
2018-06-19T12:01:35.494Z,97.72
2018-06-19T12:02:36.584Z,97.33
2018-06-19T12:03:35.880Z,97.04
2018-06-19T12:04:36.611Z,97.91
2018-06-19T12:05:36.159Z,97.33
2018-06-19T12:06:36.351Z,96.75
2018-06-19T12:07:45.582Z,98.58
2018-06-19T12:08:36.732Z,94.86
2018-06-19T12:09:38.694Z,96.70
2018-06-19T12:10:37.077Z,94.76
2018-06-19T12:11:37.409Z,95.20
2018-06-19T12:12:37.497Z,98.20
2018-06-19T12:13:37.663Z,99.84
2018-06-19T12:14:37.838Z,99.55
2018-06-19T12:15:38.111Z,99.65
2018-06-19T12:16:38.213Z,99.74
2018-06-19T12:17:46.037Z,99.55
2018-06-19T12:18:38.577Z,99.65
2018-06-19T12:19:38.764Z,99.99
2018-06-19T12:20:39.104Z,99.99
2018-06-19T12:21:39.041Z,99.99
2018-06-19T12:22:39.415Z,99.99
2018-06-19T12:23:39.451Z,99.99
2018-06-19T12:24:39.697Z,99.99
2018-06-19T12:25:39.748Z,99.99
2018-06-19T12:26:39.997Z,99.99
2018-06-19T12:27:40.051Z,99.99
2018-06-19T12:30:12.352Z,99.99
2018-06-19T12:31:12.524Z,99.99
2018-06-19T12:32:12.693Z,99.99
2018-06-19T12:33:14.376Z,99.99
2018-06-19T12:34:13.063Z,99.99
2018-06-19T12:35:13.255Z,99.99
2018-06-19T12:36:13.411Z,99.99
2018-06-19T12:37:13.585Z,99.99
2018-06-19T12:38:13.760Z,99.99
2018-06-19T12:39:13.956Z,99.99
2018-06-19T12:40:14.121Z,99.99
2018-06-19T12:41:14.282Z,99.99
2018-06-19T12:42:14.454Z,99.99
2018-06-19T12:43:14.655Z,99.99
2018-06-19T12:44:14.844Z,99.99
2018-06-19T12:46:58.394Z,99.99
2018-06-19T12:47:58.564Z,99.99
2018-06-19T12:48:58.734Z,99.99
2018-06-19T12:49:58.957Z,99.99
2018-06-19T12:50:59.097Z,99.99
2018-06-19T12:51:59.261Z,99.99
2018-06-19T12:52:59.435Z,99.99
2018-06-19T12:53:59.601Z,99.99
2018-06-19T12:54:59.773Z,99.99
2018-06-19T12:55:59.948Z,99.99
2018-06-19T12:57:08.440Z,99.99
2018-06-19T12:58:00.310Z,99.99
2018-06-19T12:59:00.362Z,99.99
2018-06-19T13:00:00.557Z,99.99
2018-06-19T13:01:00.723Z,99.99
2018-06-19T13:02:00.921Z,99.99
2018-06-19T13:03:01.230Z,99.99
2018-06-19T13:04:09.126Z,99.99
2018-06-19T13:05:01.579Z,99.99
2018-06-19T13:06:01.626Z,99.99
2018-06-19T13:07:01.804Z,99.99
2018-06-19T13:08:01.970Z,99.99
2018-06-19T13:09:02.421Z,99.99
2018-06-19T13:10:02.358Z,99.99
2018-06-19T13:11:02.499Z,99.99
2018-06-19T13:12:02.622Z,99.99
2018-06-19T13:13:03.736Z,99.99
2018-06-19T13:14:03.004Z,99.99
2018-06-19T13:15:03.080Z,99.99
2018-06-19T13:16:03.264Z,99.99
2018-06-19T13:17:03.424Z,99.21
2018-06-19T13:18:03.703Z,98.93
2018-06-19T13:20:45.876Z,99.99
2018-06-19T13:21:46.055Z,99.99
2018-06-19T13:22:48.833Z,99.99
2018-06-19T13:23:46.463Z,99.99
2018-06-19T13:24:46.589Z,99.99
2018-06-19T13:25:46.763Z,99.99
2018-06-19T13:26:55.607Z,99.99
2018-06-19T13:27:47.113Z,99.99
2018-06-19T13:28:47.914Z,99.99
2018-06-19T13:29:47.476Z,99.99
2018-06-19T13:30:55.312Z,99.99
2018-06-19T13:31:47.851Z,99.99
2018-06-19T13:32:48.021Z,99.99
2018-06-19T13:33:56.260Z,99.99
2018-06-19T13:34:48.425Z,99.99
2018-06-19T13:35:48.593Z,99.99
2018-06-19T13:36:48.766Z,99.99
2018-06-19T13:37:48.937Z,99.99
2018-06-19T13:38:49.937Z,99.99
2018-06-19T13:39:49.238Z,99.99
2018-06-19T13:40:49.435Z,99.99
2018-06-19T13:41:49.589Z,99.99
2018-06-19T13:42:49.818Z,99.99
2018-06-19T13:43:50.095Z,99.99
2018-06-19T13:44:50.404Z,99.99
2018-06-19T13:46:50.482Z,99.99
2018-06-19T13:47:50.630Z,99.99
2018-06-19T13:48:59.468Z,99.99
2018-06-19T13:49:51.178Z,99.99
2018-06-19T13:50:51.187Z,99.99
2018-06-19T13:51:59.461Z,99.99
2018-06-19T13:52:51.512Z,99.99
2018-06-19T13:53:51.758Z,99.99
2018-06-19T13:54:51.854Z,99.99
2018-06-19T13:55:52.613Z,99.99
2018-06-19T13:56:52.173Z,99.99
2018-06-19T13:57:52.349Z,99.99
2018-06-19T13:58:52.549Z,99.99
2018-06-19T13:59:52.722Z,99.99
2018-06-19T14:00:52.962Z,99.99
2018-06-19T14:01:53.078Z,99.99
2018-06-19T14:02:53.245Z,99.99
2018-06-19T14:03:53.507Z,99.99
2018-06-19T14:04:53.551Z,99.99
2018-06-19T14:05:53.725Z,99.99
2018-06-19T14:08:37.079Z,99.99
2018-06-19T14:09:36.328Z,99.99
2018-06-19T14:10:43.552Z,99.99
2018-06-19T14:11:36.626Z,99.99
2018-06-19T14:12:36.770Z,99.99
2018-06-19T14:13:36.960Z,99.99
2018-06-19T14:14:45.909Z,99.99
2018-06-19T14:15:40.093Z,99.99
2018-06-19T14:16:37.361Z,99.99
2018-06-19T14:17:37.554Z,99.99